Time,TemperatureF,DewpointF,PressureIn,WindDirection,WindDirectionDegrees,WindSpeedMPH,WindSpeedGustMPH,Humidity,HourlyPrecipIn,Conditions,Clouds,dailyrainin,SoftwareType,DateUTC
2013-07-21 00:06:00,70.0,48.0,-100.00,ENE,62,1.0,6.0,46,0.00,,,0.00,,2013-07-21 00:06:00,
2013-07-21 03:04:00,53.0,51.0,-100.00,SW,215,0.0,0.0,94,0.00,,,0.00,,2013-07-21 03:04:00,
2013-07-21 03:14:00,53.0,51.0,-100.00,SW,215,0.0,0.0,94,0.00,,,0.00,,2013-07-21 03:14:00,
2013-07-21 03:25:00,53.0,51.0,-100.00,SW,215,0.0,0.0,94,0.00,,,0.00,,2013-07-21 03:25:00,
2013-07-21 03:35:00,53.0,51.0,-100.00,SW,215,0.0,0.0,94,0.00,,,0.00,,2013-07-21 03:35:00,
2013-07-21 04:01:00,50.0,49.0,-100.00,SSW,203,0.0,1.0,96,0.00,,,0.00,,2013-07-21 04:01:00,
2013-07-21 04:11:00,50.0,49.0,-100.00,SSW,203,0.0,1.0,96,0.00,,,0.00,,2013-07-21 04:11:00,
2013-07-21 04:22:00,50.0,49.0,-100.00,SSW,203,0.0,1.0,96,0.00,,,0.00,,2013-07-21 04:22:00,
2013-07-21 04:32:00,50.0,49.0,-100.00,SSW,203,0.0,1.0,96,0.00,,,0.00,,2013-07-21 04:32:00,
2013-07-21 05:02:00,49.0,48.0,-100.00,South,175,0.0,1.0,97,0.00,,,0.00,,2013-07-21 05:02:00,
2013-07-21 05:11:00,49.0,48.0,-100.00,South,175,0.0,1.0,97,0.00,,,0.00,,2013-07-21 05:11:00,
2013-07-21 05:22:00,49.0,48.0,-100.00,South,175,0.0,1.0,97,0.00,,,0.00,,2013-07-21 05:22:00,
2013-07-21 05:32:00,49.0,48.0,-100.00,South,175,0.0,1.0,97,0.00,,,0.00,,2013-07-21 05:32:00,
2013-07-21 06:01:00,47.0,46.0,-100.00,South,173,0.0,0.0,98,0.00,,,0.00,,2013-07-21 06:01:00,
2013-07-21 06:11:00,47.0,46.0,-100.00,South,173,0.0,0.0,98,0.00,,,0.00,,2013-07-21 06:11:00,
2013-07-21 06:22:00,47.0,46.0,-100.00,South,173,0.0,0.0,98,0.00,,,0.00,,2013-07-21 06:22:00,
2013-07-21 06:32:00,47.0,46.0,-100.00,South,173,0.0,0.0,98,0.00,,,0.00,,2013-07-21 06:32:00,
2013-07-21 07:01:00,47.0,46.0,-100.00,South,181,0.0,0.0,98,0.00,,,0.00,,2013-07-21 07:01:00,
2013-07-21 07:11:00,47.0,46.0,-100.00,South,181,0.0,0.0,98,0.00,,,0.00,,2013-07-21 07:11:00,
2013-07-21 07:22:00,47.0,46.0,-100.00,South,181,0.0,0.0,98,0.00,,,0.00,,2013-07-21 07:22:00,
2013-07-21 07:32:00,47.0,46.0,-100.00,South,181,0.0,0.0,98,0.00,,,0.00,,2013-07-21 07:32:00,
2013-07-21 08:01:00,49.0,49.0,-100.00,SSW,212,0.0,0.0,99,0.00,,,0.00,,2013-07-21 08:01:00,
2013-07-21 08:11:00,49.0,49.0,-100.00,SSW,212,0.0,0.0,99,0.00,,,0.00,,2013-07-21 08:11:00,
2013-07-21 08:22:00,49.0,49.0,-100.00,SSW,212,0.0,0.0,99,0.00,,,0.00,,2013-07-21 08:22:00,
2013-07-21 09:02:00,47.0,46.0,-100.00,NW,326,0.0,0.0,96,0.00,,,0.00,,2013-07-21 09:02:00,
2013-07-21 09:12:00,47.0,46.0,-100.00,NW,326,0.0,0.0,96,0.00,,,0.00,,2013-07-21 09:12:00,
2013-07-21 09:22:00,47.0,46.0,-100.00,NW,326,0.0,0.0,96,0.00,,,0.00,,2013-07-21 09:22:00,
2013-07-21 09:32:00,47.0,46.0,-100.00,NW,326,0.0,0.0,96,0.00,,,0.00,,2013-07-21 09:32:00,
2013-07-21 10:02:00,46.0,45.0,-100.00,SSW,198,0.0,0.0,98,0.00,,,0.00,,2013-07-21 10:02:00,
2013-07-21 10:11:00,46.0,45.0,-100.00,SSW,198,0.0,0.0,98,0.00,,,0.00,,2013-07-21 10:11:00,
2013-07-21 10:22:00,46.0,45.0,-100.00,SSW,198,0.0,0.0,98,0.00,,,0.00,,2013-07-21 10:22:00,
2013-07-21 10:32:00,46.0,45.0,-100.00,SSW,198,0.0,0.0,98,0.00,,,0.00,,2013-07-21 10:32:00,
2013-07-21 11:02:00,47.0,46.0,-100.00,South,175,0.0,0.0,98,0.00,,,0.00,,2013-07-21 11:02:00,
2013-07-21 11:12:00,47.0,46.0,-100.00,South,175,0.0,0.0,98,0.00,,,0.00,,2013-07-21 11:12:00,
2013-07-21 11:22:00,47.0,46.0,-100.00,South,175,0.0,0.0,98,0.00,,,0.00,,2013-07-21 11:22:00,
2013-07-21 11:33:00,47.0,46.0,-100.00,South,175,0.0,0.0,98,0.00,,,0.00,,2013-07-21 11:33:00,
2013-07-21 12:01:00,46.0,45.0,-100.00,SE,145,0.0,0.0,97,0.00,,,0.00,,2013-07-21 12:01:00,
2013-07-21 12:11:00,46.0,45.0,-100.00,SE,145,0.0,0.0,97,0.00,,,0.00,,2013-07-21 12:11:00,
2013-07-21 12:22:00,46.0,45.0,-100.00,SE,145,0.0,0.0,97,0.00,,,0.00,,2013-07-21 12:22:00,
2013-07-21 12:32:00,46.0,45.0,-100.00,SE,145,0.0,0.0,97,0.00,,,0.00,,2013-07-21 12:32:00,
2013-07-21 13:01:00,49.0,48.0,-100.00,SSE,148,0.0,0.0,98,0.00,,,0.00,,2013-07-21 13:01:00,
2013-07-21 13:12:00,49.0,48.0,-100.00,SSE,148,0.0,0.0,98,0.00,,,0.00,,2013-07-21 13:12:00,
2013-07-21 13:22:00,49.0,48.0,-100.00,SSE,148,0.0,0.0,98,0.00,,,0.00,,2013-07-21 13:22:00,
2013-07-21 13:32:00,49.0,48.0,-100.00,SSE,148,0.0,0.0,98,0.00,,,0.00,,2013-07-21 13:32:00,
2013-07-21 14:01:00,58.0,50.0,-100.00,SSW,209,4.0,8.0,75,0.00,,,0.00,,2013-07-21 14:01:00,
2013-07-21 14:12:00,58.0,50.0,-100.00,SSW,209,4.0,8.0,75,0.00,,,0.00,,2013-07-21 14:12:00,
2013-07-21 14:22:00,58.0,50.0,-100.00,SSW,209,4.0,8.0,75,0.00,,,0.00,,2013-07-21 14:22:00,
2013-07-21 14:32:00,58.0,50.0,-100.00,SSW,209,4.0,8.0,75,0.00,,,0.00,,2013-07-21 14:32:00,
2013-07-21 15:02:00,60.0,49.0,-100.00,SW,217,3.0,9.0,67,0.00,,,0.00,,2013-07-21 15:02:00,
2013-07-21 15:11:00,60.0,49.0,-100.00,SW,217,3.0,9.0,67,0.00,,,0.00,,2013-07-21 15:11:00,
2013-07-21 15:22:00,60.0,49.0,-100.00,SW,217,3.0,9.0,67,0.00,,,0.00,,2013-07-21 15:22:00,
2013-07-21 15:32:00,60.0,49.0,-100.00,SW,217,3.0,9.0,67,0.00,,,0.00,,2013-07-21 15:32:00,
2013-07-21 16:01:00,63.0,51.0,-100.00,SW,216,4.0,10.0,64,0.00,,,0.00,,2013-07-21 16:01:00,
2013-07-21 16:11:00,63.0,51.0,-100.00,SW,216,4.0,10.0,64,0.00,,,0.00,,2013-07-21 16:11:00,
2013-07-21 16:22:00,63.0,51.0,-100.00,SW,216,4.0,10.0,64,0.00,,,0.00,,2013-07-21 16:22:00,
2013-07-21 16:32:00,63.0,51.0,-100.00,SW,216,4.0,10.0,64,0.00,,,0.00,,2013-07-21 16:32:00,
2013-07-21 17:02:00,67.0,51.0,-100.00,SW,214,4.0,10.0,57,0.00,,,0.00,,2013-07-21 17:02:00,
2013-07-21 17:11:00,67.0,51.0,-100.00,SW,214,4.0,10.0,57,0.00,,,0.00,,2013-07-21 17:11:00,
2013-07-21 17:22:00,67.0,51.0,-100.00,SW,214,4.0,10.0,57,0.00,,,0.00,,2013-07-21 17:22:00,
2013-07-21 17:33:00,67.0,51.0,-100.00,SW,214,4.0,10.0,57,0.00,,,0.00,,2013-07-21 17:33:00,
2013-07-21 20:12:00,72.0,51.0,-100.00,SSW,198,5.0,13.0,48,-99.99,,,0.00,,2013-07-21 20:12:00,
2013-07-21 20:22:00,72.0,51.0,-100.00,SSW,198,5.0,13.0,48,-99.99,,,0.00,,2013-07-21 20:22:00,
2013-07-21 20:32:00,72.0,51.0,-100.00,SSW,198,5.0,13.0,48,-99.99,,,0.00,,2013-07-21 20:32:00,
2013-07-21 23:02:00,72.0,52.0,-100.00,SSW,203,3.0,12.0,49,-99.99,,,0.00,,2013-07-21 23:02:00,
2013-07-21 23:11:00,72.0,52.0,-100.00,SSW,203,3.0,12.0,49,-99.99,,,0.00,,2013-07-21 23:11:00,
2013-07-21 23:22:00,72.0,52.0,-100.00,SSW,203,3.0,12.0,49,-99.99,,,0.00,,2013-07-21 23:22:00,
2013-07-21 23:32:00,72.0,52.0,-100.00,SSW,203,3.0,12.0,49,-99.99,,,0.00,,2013-07-21 23:32:00,